Time;durP1;ratioP1;P1;durP2;ratioP2;P2;SDS_P1;SDS_P2;PMS_P1;PMS_P2;Temp;Humidity;BMP_temperature;BMP_pressure;BME280_temperature;BME280_humidity;BME280_pressure;Samples;Min_cycle;Max_cycle;Signal;HPM_P1;HPM_P2
2022/02/04 00:26:19;;;;;;;35.03;13.33;;;;;;;;;;6212608;23;20164;-89
2022/02/04 00:29:33;;;;;;;54.70;13.57;;;;;;;;;;6211477;23;20183;-90
2022/02/04 00:32:41;;;;;;;53.90;15.00;;;;;;;;;;6213188;23;20676;-88
2022/02/04 00:35:55;;;;;;;45.37;14.73;;;;;;;;;;6214014;23;20163;-91
2022/02/04 00:39:04;;;;;;;41.30;14.00;;;;;;;;;;6213153;23;20195;-89
2022/02/04 00:42:11;;;;;;;35.40;14.03;;;;;;;;;;6213483;23;20171;-89
2022/02/04 00:45:22;;;;;;;40.00;14.97;;;;;;;;;;6217852;23;20211;-89
2022/02/04 00:48:36;;;;;;;70.63;14.53;;;;;;;;;;6217105;23;21052;-88
2022/02/04 00:51:53;;;;;;;54.33;14.67;;;;;;;;;;6218526;23;20170;-89
2022/02/04 00:55:16;;;;;;;63.37;14.60;;;;;;;;;;6219951;23;20171;-92
2022/02/04 01:28:53;;;;;;;57.00;14.30;;;;;;;;;;6218384;23;20187;-91
2022/02/04 01:31:58;;;;;;;55.97;15.57;;;;;;;;;;6217859;23;20171;-90
2022/02/04 01:35:06;;;;;;;39.23;13.97;;;;;;;;;;6218408;23;20166;-91
2022/02/04 01:38:12;;;;;;;35.47;13.80;;;;;;;;;;6218106;23;20194;-89
2022/02/04 01:41:17;;;;;;;42.87;13.90;;;;;;;;;;6217906;23;20170;-92
2022/02/04 01:44:23;;;;;;;35.93;14.07;;;;;;;;;;6216006;23;20162;-92
2022/02/04 01:47:28;;;;;;;33.20;13.20;;;;;;;;;;6219393;23;20191;-91
2022/02/04 01:50:34;;;;;;;31.20;13.00;;;;;;;;;;6216108;23;20215;-89
2022/02/04 01:53:45;;;;;;;32.20;13.50;;;;;;;;;;6219121;23;20623;-91
2022/02/04 01:56:56;;;;;;;30.63;12.73;;;;;;;;;;6219936;23;20202;-92
2022/02/04 02:00:01;;;;;;;29.10;12.73;;;;;;;;;;6218163;23;20236;-88
2022/02/04 02:03:06;;;;;;;30.17;13.53;;;;;;;;;;6219334;23;20150;-90
2022/02/04 02:06:12;;;;;;;32.07;13.10;;;;;;;;;;6216115;23;20179;-90
2022/02/04 02:09:21;;;;;;;30.90;13.20;;;;;;;;;;6215947;23;20250;-89
2022/02/04 02:12:32;;;;;;;27.83;12.23;;;;;;;;;;6216081;23;20198;-91
2022/02/04 02:15:45;;;;;;;25.63;12.13;;;;;;;;;;6218104;23;20167;-90
2022/02/04 02:36:32;;;;;;;32.80;11.77;;;;;;;;;;6213323;23;20167;-89
2022/02/04 02:46:49;;;;;;;27.57;11.00;;;;;;;;;;6214822;23;20163;-90
2022/02/04 02:50:17;;;;;;;23.97;11.97;;;;;;;;;;6215804;23;20273;-90
2022/02/04 03:00:11;;;;;;;21.90;11.10;;;;;;;;;;6216278;23;20179;-89
2022/02/04 03:03:19;;;;;;;25.70;12.00;;;;;;;;;;6214812;23;20258;-90
2022/02/04 03:06:24;;;;;;;28.37;12.27;;;;;;;;;;6213422;23;20207;-89
2022/02/04 03:09:29;;;;;;;27.07;11.60;;;;;;;;;;6214131;23;20163;-91
2022/02/04 03:12:37;;;;;;;27.23;11.87;;;;;;;;;;6213730;23;20240;-91
2022/02/04 03:15:42;;;;;;;26.67;11.73;;;;;;;;;;6214031;23;20171;-92
2022/02/04 03:18:48;;;;;;;26.33;11.83;;;;;;;;;;6211327;23;20167;-92
2022/02/04 03:21:55;;;;;;;27.23;11.67;;;;;;;;;;6215624;23;20171;-90
2022/02/04 03:25:05;;;;;;;26.80;10.97;;;;;;;;;;6213417;23;20286;-90
2022/02/04 03:28:18;;;;;;;21.97;10.90;;;;;;;;;;6215478;23;20195;-90
2022/02/04 03:31:31;;;;;;;26.47;10.83;;;;;;;;;;6215965;23;20550;-92
2022/02/04 03:34:36;;;;;;;25.47;11.60;;;;;;;;;;6214763;23;20214;-92
2022/02/04 03:37:44;;;;;;;31.20;12.70;;;;;;;;;;6213260;23;20163;-90
2022/02/04 03:40:51;;;;;;;23.87;11.57;;;;;;;;;;6211774;23;20195;-90
2022/02/04 03:43:58;;;;;;;26.90;11.83;;;;;;;;;;6213509;23;20147;-91
2022/02/04 03:47:03;;;;;;;28.17;11.83;;;;;;;;;;6214874;23;20262;-89
2022/02/04 03:50:09;;;;;;;30.47;12.53;;;;;;;;;;6213106;23;20607;-93
2022/02/04 03:53:15;;;;;;;30.40;12.20;;;;;;;;;;6214196;23;20187;-90
2022/02/04 03:56:20;;;;;;;31.23;13.10;;;;;;;;;;6213841;23;20167;-89
2022/02/04 03:59:28;;;;;;;32.37;13.57;;;;;;;;;;6212111;23;20191;-90
2022/02/04 04:02:33;;;;;;;32.73;13.60;;;;;;;;;;6211728;23;20228;-91
2022/02/04 04:05:44;;;;;;;31.17;12.63;;;;;;;;;;6212664;23;20170;-91
2022/02/04 04:08:53;;;;;;;31.43;12.30;;;;;;;;;;6212791;23;20164;-91
2022/02/04 04:11:58;;;;;;;28.70;12.90;;;;;;;;;;6212349;23;20238;-91
2022/02/04 04:15:09;;;;;;;30.97;12.87;;;;;;;;;;6210280;23;20163;-89
2022/02/04 04:18:15;;;;;;;29.30;12.40;;;;;;;;;;6211925;23;20173;-90
2022/02/04 04:21:21;;;;;;;33.60;13.40;;;;;;;;;;6212862;23;20267;-92
2022/02/04 04:24:26;;;;;;;27.40;11.53;;;;;;;;;;6213301;23;20544;-92
2022/02/04 04:27:31;;;;;;;29.33;11.57;;;;;;;;;;6213063;23;20182;-92
2022/02/04 04:30:39;;;;;;;26.77;11.57;;;;;;;;;;6211880;23;20163;-89
2022/02/04 04:33:45;;;;;;;27.93;12.30;;;;;;;;;;6211673;23;20184;-90
2022/02/04 04:36:51;;;;;;;25.33;11.30;;;;;;;;;;6211411;23;20167;-90
2022/02/04 04:40:11;;;;;;;25.87;11.00;;;;;;;;;;6213915;23;20522;-91
2022/02/04 04:43:30;;;;;;;32.67;12.23;;;;;;;;;;6212276;23;20240;-91
2022/02/04 05:25:40;;;;;;;26.93;11.70;;;;;;;;;;6209494;23;20256;-89
2022/02/04 05:28:11;;;;;;;29.77;13.03;;;;;;;;;;6215217;23;20203;-90
2022/02/04 05:31:16;;;;;;;34.57;12.57;;;;;;;;;;6214625;23;20198;-91
2022/02/04 05:34:22;;;;;;;30.43;12.60;;;;;;;;;;6216671;23;20163;-91
2022/02/04 05:37:29;;;;;;;28.37;12.47;;;;;;;;;;6217380;23;20199;-92
2022/02/04 05:40:40;;;;;;;32.73;12.83;;;;;;;;;;6217181;23;20190;-90
2022/02/04 05:43:48;;;;;;;28.83;12.37;;;;;;;;;;6217905;23;20211;-90
2022/02/04 05:46:58;;;;;;;29.47;13.03;;;;;;;;;;6216521;23;20178;-91
2022/02/04 05:50:14;;;;;;;34.93;14.37;;;;;;;;;;6216520;23;20190;-91
2022/02/04 05:53:28;;;;;;;28.30;12.70;;;;;;;;;;6216557;23;20243;-88
2022/02/04 05:56:39;;;;;;;37.90;13.93;;;;;;;;;;6216248;23;20175;-89
2022/02/04 06:00:19;;;;;;;34.20;13.60;;;;;;;;;;6215595;23;20182;-91
2022/02/04 06:03:35;;;;;;;29.20;13.13;;;;;;;;;;6216239;23;20187;-89
2022/02/04 06:07:00;;;;;;;33.70;13.47;;;;;;;;;;6217310;23;20163;-91
2022/02/04 06:10:32;;;;;;;31.47;13.70;;;;;;;;;;6216163;23;20183;-91
2022/02/04 06:13:53;;;;;;;29.83;13.63;;;;;;;;;;6216848;23;20226;-90
2022/02/04 06:23:49;;;;;;;34.70;13.87;;;;;;;;;;6208245;23;20191;-89
2022/02/04 06:26:56;;;;;;;32.43;15.33;;;;;;;;;;6218797;23;20190;-90
2022/02/04 06:30:14;;;;;;;30.60;13.33;;;;;;;;;;6218823;23;20175;-90
2022/02/04 06:33:20;;;;;;;28.73;13.53;;;;;;;;;;6215904;23;20194;-90
2022/02/04 06:36:27;;;;;;;32.63;13.67;;;;;;;;;;6219644;23;20178;-90
2022/02/04 06:39:33;;;;;;;34.63;13.93;;;;;;;;;;6220163;23;20152;-91
2022/02/04 06:42:40;;;;;;;33.60;14.20;;;;;;;;;;6217992;23;20242;-89
2022/02/04 06:45:46;;;;;;;32.07;14.23;;;;;;;;;;6216300;23;20171;-91
2022/02/04 06:48:52;;;;;;;35.43;14.40;;;;;;;;;;6217758;23;20350;-90
2022/02/04 06:51:57;;;;;;;34.07;14.77;;;;;;;;;;6235416;23;20195;-91
2022/02/04 06:55:02;;;;;;;32.33;14.53;;;;;;;;;;6218250;23;20171;-92
2022/02/04 06:58:11;;;;;;;34.70;14.63;;;;;;;;;;6218456;23;20170;-90
2022/02/04 07:01:19;;;;;;;35.97;14.80;;;;;;;;;;6218339;23;20198;-90
2022/02/04 07:04:29;;;;;;;33.13;14.47;;;;;;;;;;6219826;23;20175;-90
2022/02/04 07:07:37;;;;;;;30.37;13.70;;;;;;;;;;6220206;23;20553;-91
2022/02/04 07:11:03;;;;;;;29.67;13.27;;;;;;;;;;6217970;23;20190;-90
2022/02/04 07:14:18;;;;;;;34.27;13.67;;;;;;;;;;6218373;23;20155;-92
2022/02/04 07:17:29;;;;;;;36.40;13.47;;;;;;;;;;6215810;23;20178;-90
2022/02/04 07:20:33;;;;;;;29.73;13.43;;;;;;;;;;6219453;23;20246;-90
2022/02/04 07:23:38;;;;;;;33.27;15.30;;;;;;;;;;6216777;23;20155;-92
2022/02/04 07:26:48;;;;;;;27.43;13.10;;;;;;;;;;6216963;23;20155;-90
2022/02/04 07:29:59;;;;;;;30.33;13.70;;;;;;;;;;6216149;23;20163;-91
2022/02/04 07:33:13;;;;;;;30.90;13.70;;;;;;;;;;6216892;23;20254;-90
2022/02/04 07:43:05;;;;;;;32.57;15.10;;;;;;;;;;6215623;23;20213;-91
2022/02/04 07:46:13;;;;;;;29.53;14.23;;;;;;;;;;6215274;23;20206;-91
2022/02/04 07:49:18;;;;;;;25.00;12.90;;;;;;;;;;6216582;23;20190;-91
2022/02/04 07:52:24;;;;;;;30.57;13.57;;;;;;;;;;6217081;23;20201;-92
2022/02/04 07:55:30;;;;;;;30.53;15.73;;;;;;;;;;6218499;23;20206;-92
2022/02/04 07:58:37;;;;;;;28.93;14.10;;;;;;;;;;6213774;23;20151;-93
2022/02/04 08:01:46;;;;;;;42.30;18.13;;;;;;;;;;6217585;23;20186;-94
2022/02/04 08:04:52;;;;;;;30.43;14.37;;;;;;;;;;6221561;23;20183;-88
2022/02/04 08:08:04;;;;;;;31.73;13.17;;;;;;;;;;6217821;23;20155;-92
2022/02/04 08:11:27;;;;;;;41.83;16.23;;;;;;;;;;6215623;23;20170;-91
2022/02/04 08:21:51;;;;;;;32.97;16.73;;;;;;;;;;6213592;23;20202;-91
2022/02/04 08:31:46;;;;;;;33.33;15.57;;;;;;;;;;6213470;23;20501;-92
2022/02/04 23:53:44;;;;;;;2.83;1.13;;;;;;;;;;6159221;22;1783399;-93
2022/02/04 23:56:50;;;;;;;2.57;1.30;;;;;;;;;;6236795;23;20235;-93
